Memphis, MO

10:46 PM CDT on September 23, 2014 (GMT -0500)
KMOLANCA2 | Change Station
CLOSE
Current Station
Personal Weather Station
Location: Lancaster, MO
Elevation: 915 ft
Nearby Weather Stations

Elev 915 ft 40.52 °N, 92.52 °W | Updated 11 minutes ago

Mostly Cloudy
Mostly Cloudy
61.9 °F
Feels Like 61.9 °F
N
5.0
Wind Variable Wind from ESE

Today
High -- | Low -- °F
--% Chance of Precip.
Yesterday
High -- | Low -- °F
Precip. -- in
6:57 AM 7:04 PM
Waning Crescent, 0% visible
Pressure 30.22 in
Visibility 10.0 miles
Clouds Clear
Dew Point 54 °F
Humidity 75%
Rainfall 0.00 in
Snow Depth Not available.
UV 0 out of 12
Pollen 4.80 out of 12
Air Quality Not available.
Flu Activity Not available.
METAR KIRK 240255Z AUTO 13008KT 10SM CLR 16/11 A3022 RMK AO2 SLP234 T01610111 50004

More Conditions Fewer Conditions

Pressure 30.22 in
Visibility 10.0 miles
Clouds Clear
Dew Point 54 °F
Humidity 75%
Rainfall 0.00 in
Snow Depth Not available.
UV 0 out of 12
Pollen 4.80 out of 12
Air Quality Not available.
Flu Activity Not available.
METAR KIRK 240255Z AUTO 13008KT 10SM CLR 16/11 A3022 RMK AO2 SLP234 T01610111 50004

More Conditions Fewer Conditions

10-Day Weather Forecast

Almanac

Astronomy

Sep. 23, 2014 Rise Set
Actual Time 6:57 AM CDT 7:04 PM CDT
Civil Twilight 6:30 AM CDT 7:31 PM CDT
Nautical Twilight 5:58 AM CDT 8:03 PM CDT
Astronomical Twilight 5:25 AM CDT 8:35 PM CDT
Moon 6:21 AM CDT (9/23) 6:43 PM CDT (9/23)
Length of Visible Light 13h 01m
Length of Day
12h 06m
Tomorrow will be 2m 39s shorter.
Waning Crescent, 0% of the Moon is Illuminated
Today
Waning Crescent
Sep 24
New
Oct 1
First Quarter
Oct 8
Full
Oct 15
Last Quarter

Today's Extremes

State Highs State Lows

Community

WunderPhotos

Upload Photos

1,755,878 photos uploaded!

WunderBlogs® & News

Nearby

Snow Depth

Station Depth Elevation
No new snow has been reported.

Earthquake Activity

City Distance Mag. Time & Date
No recent earthquake activity has been reported nearby.
Minimum magnitude displayed is 2.5.

Coastal Water Temperatures

Place Temperature
No Stations Reporting

Nearby Weather Stations